Time;durP1;ratioP1;P1;durP2;ratioP2;P2;SDS_P1;SDS_P2;PMS_P1;PMS_P2;Temp;Humidity;BMP_temperature;BMP_pressure;BME280_temperature;BME280_humidity;BME280_pressure;Samples;Min_cycle;Max_cycle;Signal;HPM_P1;HPM_P2
2022/10/22 00:02:20;;;;;;;31.08;29.33;;;;;;;16.54;68.63;100764.19;4976809;28;20027;-72
2022/10/22 00:04:47;;;;;;;31.52;29.73;;;;;;;16.54;68.38;100763.38;4976435;28;20519;-73
2022/10/22 00:07:12;;;;;;;33.22;31.25;;;;;;;16.51;68.29;100764.75;4976866;28;20117;-73
2022/10/22 00:09:39;;;;;;;30.38;28.70;;;;;;;16.50;68.37;100767.75;4975831;28;20117;-72
2022/10/22 00:12:05;;;;;;;30.05;28.25;;;;;;;16.50;68.17;100765.84;4976281;28;20033;-72
2022/10/22 00:14:30;;;;;;;31.80;29.75;;;;;;;16.50;68.63;100767.75;4976245;28;20031;-73
2022/10/22 00:16:55;;;;;;;31.98;30.17;;;;;;;16.48;68.11;100772.66;4974931;28;20129;-72
2022/10/22 00:19:21;;;;;;;31.20;29.20;;;;;;;16.48;68.40;100769.94;4976205;28;20033;-72
2022/10/22 00:21:46;;;;;;;30.48;28.83;;;;;;;16.46;68.23;100780.34;4976128;28;20113;-72
2022/10/22 00:24:12;;;;;;;31.65;29.85;;;;;;;16.44;68.70;100772.44;4976414;28;20468;-73
2022/10/22 00:26:38;;;;;;;30.75;29.05;;;;;;;16.43;68.48;100776.25;4974730;28;20486;-72
2022/10/22 00:29:04;;;;;;;30.95;29.23;;;;;;;16.42;68.46;100771.88;4975909;28;20038;-72
2022/10/22 00:31:29;;;;;;;31.48;29.67;;;;;;;16.41;68.16;100773.00;4976474;28;20547;-72
2022/10/22 00:33:55;;;;;;;34.10;32.08;;;;;;;16.40;68.40;100779.53;4974587;28;20027;-73
2022/10/22 00:36:20;;;;;;;30.98;29.38;;;;;;;16.39;68.32;100773.25;4975886;28;20506;-73
2022/10/22 00:38:46;;;;;;;30.33;28.33;;;;;;;16.39;68.32;100784.16;4975791;28;20035;-75
2022/10/22 00:41:11;;;;;;;31.33;29.27;;;;;;;16.38;68.24;100776.28;4975489;28;20053;-73
2022/10/22 00:44:03;;;;;;;30.05;28.50;;;;;;;16.37;68.25;100777.38;4975770;28;20089;-72
2022/10/22 00:46:29;;;;;;;31.40;29.45;;;;;;;16.34;68.37;100781.47;4974735;28;20123;-73
2022/10/22 00:48:58;;;;;;;32.00;29.90;;;;;;;16.35;68.06;100787.72;4975335;28;20054;-73
2022/10/22 00:51:24;;;;;;;;;;;;;;;16.34;68.18;100788.84;4976075;28;20031;-72
2022/10/22 00:53:59;;;;;;;30.98;29.08;;;;;;;16.30;67.92;100785.84;4975521;28;19965;-72
2022/10/22 00:56:24;;;;;;;29.88;28.23;;;;;;;16.30;67.93;100783.09;4975630;28;20490;-72
2022/10/22 00:58:58;;;;;;;33.17;30.73;;;;;;;16.29;67.80;100777.97;4975437;28;20026;-72
2022/10/22 01:01:26;;;;;;;31.15;29.15;;;;;;;16.28;68.31;100781.75;4976019;28;20038;-72
2022/10/22 01:03:52;;;;;;;31.58;29.48;;;;;;;16.27;67.79;100789.13;4975368;28;20022;-72
2022/10/22 01:06:23;;;;;;;30.00;28.30;;;;;;;16.26;68.06;100789.44;4975582;28;20058;-73
2022/10/22 01:09:22;;;;;;;31.80;29.38;;;;;;;16.23;68.17;100780.72;4974351;28;20031;-75
2022/10/22 01:12:05;;;;;;;30.17;28.38;;;;;;;16.21;67.92;100785.63;4975741;28;20097;-71
2022/10/22 01:14:33;;;;;;;31.15;29.02;;;;;;;16.19;67.93;100785.06;4974940;28;20144;-72
2022/10/22 01:17:18;;;;;;;32.15;29.92;;;;;;;16.19;68.09;100789.72;4975095;28;20495;-72
2022/10/22 01:20:08;;;;;;;31.05;29.25;;;;;;;16.18;68.05;100788.09;4974900;28;20343;-71
2022/10/22 01:22:41;;;;;;;30.17;28.48;;;;;;;16.17;67.80;100786.44;4973012;28;20503;-72
2022/10/22 01:25:36;;;;;;;31.77;29.83;;;;;;;16.16;68.17;100782.09;4975510;28;20456;-73
2022/10/22 01:28:36;;;;;;;32.10;29.90;;;;;;;16.14;67.80;100773.38;4974883;28;20098;-72
2022/10/22 01:31:04;;;;;;;29.60;28.00;;;;;;;16.12;67.90;100768.22;4915128;29;20130;-72
2022/10/22 01:33:31;;;;;;;30.10;28.40;;;;;;;16.12;68.15;100775.56;4958562;28;20054;-72
2022/10/22 01:35:58;;;;;;;32.20;30.10;;;;;;;16.11;67.75;100774.75;4975094;28;20031;-72
2022/10/22 01:38:25;;;;;;;31.73;29.48;;;;;;;16.11;68.08;100765.78;4974874;28;20045;-72
2022/10/22 01:40:50;;;;;;;30.95;28.65;;;;;;;16.09;68.00;100779.66;4975108;28;20093;-72
2022/10/22 01:43:16;;;;;;;29.23;27.48;;;;;;;16.09;68.23;100767.97;4974690;28;20043;-72
2022/10/22 01:45:45;;;;;;;29.90;28.30;;;;;;;16.08;68.33;100772.59;4975070;28;20049;-72
2022/10/22 01:48:17;;;;;;;31.55;29.05;;;;;;;16.06;68.06;100769.34;4973421;28;20033;-72
2022/10/22 01:50:59;;;;;;;31.98;29.73;;;;;;;16.05;68.01;100767.72;4974728;28;20030;-72
2022/10/22 01:53:43;;;;;;;30.48;28.67;;;;;;;16.04;67.92;100774.25;4975080;28;20448;-72
2022/10/22 01:56:14;;;;;;;29.98;27.95;;;;;;;16.03;67.95;100780.78;4974353;28;20094;-72
2022/10/22 01:59:04;;;;;;;29.20;27.33;;;;;;;16.02;67.88;100784.59;4974887;28;20034;-72
2022/10/22 02:01:40;;;;;;;29.02;27.45;;;;;;;16.01;68.13;100780.25;4974571;28;20120;-71
2022/10/22 02:04:29;;;;;;;29.05;26.95;;;;;;;15.99;67.98;100777.78;4974678;28;20575;-72
2022/10/22 02:07:00;;;;;;;28.90;26.67;;;;;;;15.99;68.19;100774.25;4975089;28;20027;-75
2022/10/22 02:09:28;;;;;;;29.20;27.60;;;;;;;15.97;67.91;100774.53;4974549;28;20026;-73
2022/10/22 02:11:56;;;;;;;27.77;26.02;;;;;;;15.97;68.06;100771.81;4974604;28;20123;-72
2022/10/22 02:14:22;;;;;;;28.43;26.73;;;;;;;15.97;68.08;100771.00;4974534;28;20035;-73
2022/10/22 02:16:49;;;;;;;27.67;26.15;;;;;;;15.95;68.11;100771.28;4974494;28;20270;-73
2022/10/22 02:19:45;;;;;;;30.25;28.00;;;;;;;15.95;68.08;100774.00;4974433;28;20039;-73
2022/10/22 02:22:10;;;;;;;31.35;28.90;;;;;;;15.94;68.31;100780.53;4969526;28;20042;-73
2022/10/22 02:24:36;;;;;;;30.13;27.85;;;;;;;15.92;67.96;100771.81;4972991;28;20031;-73
2022/10/22 02:27:16;;;;;;;29.00;27.17;;;;;;;15.91;68.28;100775.66;4974830;28;20067;-72
2022/10/22 02:29:54;;;;;;;29.42;27.80;;;;;;;15.90;67.93;100771.31;4974668;28;20033;-72
2022/10/22 02:32:25;;;;;;;26.98;25.58;;;;;;;15.90;68.41;100775.91;4974410;28;20031;-72
2022/10/22 02:34:53;;;;;;;28.80;27.00;;;;;;;15.90;67.87;100784.09;4977860;28;20031;-72
2022/10/22 02:37:19;;;;;;;27.63;26.00;;;;;;;15.88;68.30;100778.94;4976813;28;20097;-72
2022/10/22 02:39:45;;;;;;;29.73;27.70;;;;;;;15.89;68.29;100782.47;4977781;28;20031;-72
2022/10/22 02:42:11;;;;;;;29.55;27.60;;;;;;;15.87;67.89;100774.56;4977945;28;20085;-72
2022/10/22 02:44:37;;;;;;;28.95;27.35;;;;;;;15.87;68.03;100782.72;4977933;28;20053;-73
2022/10/22 02:47:02;;;;;;;30.35;28.48;;;;;;;15.86;68.40;100791.19;4978055;28;20030;-73
2022/10/22 02:49:27;;;;;;;27.75;26.08;;;;;;;15.85;68.41;100776.78;4977887;28;20031;-73
2022/10/22 02:51:53;;;;;;;28.50;26.60;;;;;;;15.85;67.99;100781.38;4977852;28;20035;-72
2022/10/22 02:54:18;;;;;;;29.75;27.95;;;;;;;15.84;67.97;100786.00;4977767;28;20452;-73
2022/10/22 02:56:43;;;;;;;28.30;26.42;;;;;;;15.83;68.17;100789.03;4978087;28;20101;-73
2022/10/22 02:59:09;;;;;;;29.92;27.88;;;;;;;15.83;68.41;100786.31;4977138;28;20034;-73
2022/10/22 03:01:34;;;;;;;28.77;27.15;;;;;;;15.82;68.09;100784.66;4977685;28;20459;-72
2022/10/22 03:03:59;;;;;;;29.23;26.98;;;;;;;15.81;67.97;100791.22;4977626;28;20514;-72
2022/10/22 03:06:25;;;;;;;29.25;27.58;;;;;;;15.81;67.97;100793.94;4977476;28;20475;-73
2022/10/22 03:08:50;;;;;;;28.77;27.17;;;;;;;15.80;68.14;100790.41;4977114;28;20511;-72
2022/10/22 03:11:15;;;;;;;30.38;27.95;;;;;;;15.78;68.28;100793.41;4976621;28;20031;-72
2022/10/22 03:13:41;;;;;;;27.02;25.65;;;;;;;15.78;68.12;100792.59;4977485;28;20526;-73
2022/10/22 03:16:06;;;;;;;28.38;26.55;;;;;;;15.77;67.91;100789.06;4977379;28;20130;-72
2022/10/22 03:18:32;;;;;;;27.65;25.98;;;;;;;15.77;68.51;100793.66;4977319;28;20042;-72
2022/10/22 03:21:12;;;;;;;28.83;27.33;;;;;;;15.76;68.42;100800.22;4977314;28;20078;-72
2022/10/22 03:23:40;;;;;;;28.95;26.85;;;;;;;15.76;67.97;100798.28;4977575;28;20026;-71
2022/10/22 03:26:07;;;;;;;30.65;28.63;;;;;;;15.76;68.00;100800.22;4975828;28;20041;-71
2022/10/22 03:28:35;;;;;;;27.40;25.60;;;;;;;15.74;67.85;100792.31;4977218;28;20037;-72
2022/10/22 03:31:00;;;;;;;28.88;26.35;;;;;;;15.74;68.02;100797.75;4977149;28;20031;-71
2022/10/22 03:33:25;;;;;;;27.23;25.33;;;;;;;15.74;67.94;100802.38;4976348;28;20034;-71
2022/10/22 03:35:51;;;;;;;26.38;24.83;;;;;;;15.74;68.33;100796.94;4977090;28;20081;-71
2022/10/22 03:38:16;;;;;;;28.63;26.60;;;;;;;15.72;68.36;100808.13;4977207;28;20073;-74
2022/10/22 03:40:44;;;;;;;28.50;26.20;;;;;;;15.72;67.92;100810.00;4976944;28;20459;-72
2022/10/22 03:43:10;;;;;;;27.40;25.37;;;;;;;15.72;68.42;100812.72;4976792;28;20039;-73
2022/10/22 03:45:35;;;;;;;28.25;26.75;;;;;;;15.72;68.01;100807.28;4976026;28;20197;-72
2022/10/22 03:48:00;;;;;;;28.02;26.55;;;;;;;15.70;67.94;100821.19;4976466;28;20040;-73
2022/10/22 03:50:28;;;;;;;29.02;27.10;;;;;;;15.70;67.96;100812.19;4976985;28;20030;-74
2022/10/22 03:52:54;;;;;;;28.23;26.00;;;;;;;15.70;68.40;100823.06;4977006;28;20035;-73
2022/10/22 03:55:19;;;;;;;29.52;27.70;;;;;;;15.69;68.26;100824.16;4976855;28;20035;-74
2022/10/22 03:57:45;;;;;;;26.98;25.48;;;;;;;15.69;68.10;100824.16;4976881;28;20026;-73
2022/10/22 04:00:10;;;;;;;29.48;27.58;;;;;;;15.68;68.34;100822.53;4959943;28;20170;-74
2022/10/22 04:02:36;;;;;;;27.83;26.13;;;;;;;15.67;67.99;100827.13;4959280;28;20485;-73
2022/10/22 04:05:01;;;;;;;28.98;27.23;;;;;;;15.67;68.06;100834.50;4976507;28;20031;-73
2022/10/22 04:07:26;;;;;;;29.75;27.95;;;;;;;15.67;68.43;100829.06;4975322;28;20098;-73
2022/10/22 04:09:52;;;;;;;27.38;25.95;;;;;;;15.66;68.02;100830.16;4976393;28;20390;-73
2022/10/22 04:12:17;;;;;;;28.33;26.75;;;;;;;15.65;67.96;100823.06;4976300;28;20041;-74
2022/10/22 04:14:42;;;;;;;29.00;26.80;;;;;;;15.64;68.02;100822.25;4975969;28;20407;-75
2022/10/22 04:17:08;;;;;;;27.20;25.85;;;;;;;15.64;68.00;100816.81;4976285;28;20475;-75
2022/10/22 04:19:33;;;;;;;28.48;26.80;;;;;;;15.64;68.11;100824.16;4976198;28;20379;-73
2022/10/22 04:21:59;;;;;;;28.05;26.25;;;;;;;15.64;68.48;100833.13;4975890;28;20038;-74
2022/10/22 04:24:25;;;;;;;28.90;26.38;;;;;;;15.63;68.03;100831.53;4975987;28;20031;-73
2022/10/22 04:26:53;;;;;;;28.38;26.77;;;;;;;15.62;68.38;100835.31;4975731;28;20110;-73
2022/10/22 04:29:19;;;;;;;29.10;27.50;;;;;;;15.61;67.92;100836.41;4975968;28;20105;-73
2022/10/22 04:31:44;;;;;;;28.20;26.10;;;;;;;15.61;68.35;100841.88;4976015;28;20073;-73
2022/10/22 04:34:09;;;;;;;28.70;27.20;;;;;;;15.61;68.30;100843.78;4976225;28;20035;-73
2022/10/22 04:36:35;;;;;;;27.50;25.80;;;;;;;15.60;67.85;100842.97;4975855;28;20042;-73
2022/10/22 04:39:01;;;;;;;28.23;26.52;;;;;;;15.60;68.29;100842.97;4975836;28;20505;-73
2022/10/22 04:41:32;;;;;;;30.38;27.50;;;;;;;15.59;68.36;100846.75;4974184;28;20050;-73
2022/10/22 04:43:58;;;;;;;27.70;26.10;;;;;;;15.57;68.43;100841.59;4975483;28;20035;-73
2022/10/22 04:46:26;;;;;;;30.25;28.55;;;;;;;15.58;68.25;100831.53;4975383;28;20023;-73
2022/10/22 04:48:52;;;;;;;27.90;26.17;;;;;;;15.58;68.10;100839.69;4975686;28;20027;-73
2022/10/22 04:51:19;;;;;;;28.33;26.58;;;;;;;15.56;68.21;100839.94;4975578;28;20077;-73
2022/10/22 04:53:45;;;;;;;26.88;25.30;;;;;;;15.55;68.11;100830.16;4975351;28;20430;-73
2022/10/22 04:56:20;;;;;;;27.10;25.70;;;;;;;15.56;68.11;100848.13;4975443;28;20082;-74
2022/10/22 04:58:52;;;;;;;26.85;25.15;;;;;;;15.55;68.34;100841.06;4974264;28;20493;-73
2022/10/22 05:01:30;;;;;;;27.27;25.73;;;;;;;15.55;68.19;100845.69;4975673;28;20046;-73
2022/10/22 05:03:58;;;;;;;26.83;25.02;;;;;;;15.55;68.28;100853.84;4975940;28;20345;-73
2022/10/22 05:06:25;;;;;;;31.38;29.52;;;;;;;15.53;68.35;100851.41;4975996;28;20027;-74
2022/10/22 05:08:55;;;;;;;27.45;26.05;;;;;;;15.53;68.14;100859.56;4974181;28;20121;-74
2022/10/22 05:11:24;;;;;;;29.08;27.38;;;;;;;15.53;68.25;100862.28;4975249;28;20091;-73
2022/10/22 05:13:49;;;;;;;26.58;25.05;;;;;;;15.52;68.03;100857.09;4975289;28;20061;-72
2022/10/22 05:16:15;;;;;;;28.98;27.30;;;;;;;15.51;68.18;100855.47;4974931;28;20042;-74
2022/10/22 05:18:42;;;;;;;27.02;25.63;;;;;;;15.51;68.18;100858.22;4975181;28;20058;-73
2022/10/22 05:21:11;;;;;;;26.45;24.83;;;;;;;15.51;68.07;100858.22;4975186;28;20102;-73
2022/10/22 05:23:36;;;;;;;26.77;24.95;;;;;;;15.51;67.96;100866.38;4973797;28;20034;-73
2022/10/22 05:26:03;;;;;;;25.80;24.50;;;;;;;15.49;68.01;100866.63;4975548;28;20034;-73
2022/10/22 05:28:28;;;;;;;29.13;26.92;;;;;;;15.48;68.28;100870.47;4975030;28;20034;-72
2022/10/22 05:30:56;;;;;;;26.83;25.05;;;;;;;15.48;68.33;100865.00;4975026;28;20031;-74
2022/10/22 05:33:22;;;;;;;26.42;25.02;;;;;;;15.48;68.09;100869.66;4974865;28;20031;-74
2022/10/22 05:35:50;;;;;;;26.85;25.45;;;;;;;15.48;68.43;100870.47;4974686;28;20030;-74
2022/10/22 05:38:16;;;;;;;27.35;25.75;;;;;;;15.48;68.42;100873.19;4974991;28;20047;-74
2022/10/22 05:40:42;;;;;;;29.23;27.08;;;;;;;15.49;68.37;100868.53;4975612;28;20039;-73
2022/10/22 05:43:07;;;;;;;27.23;25.73;;;;;;;15.48;68.31;100877.81;4974815;28;20034;-72
2022/10/22 05:45:37;;;;;;;29.23;27.15;;;;;;;15.47;68.10;100877.00;4974635;28;20053;-73
2022/10/22 05:48:02;;;;;;;26.95;25.23;;;;;;;15.47;67.81;100885.16;4975057;28;20054;-73
2022/10/22 05:50:28;;;;;;;29.13;27.00;;;;;;;15.46;67.86;100880.78;4974643;28;20066;-72
2022/10/22 05:52:53;;;;;;;27.48;25.77;;;;;;;15.45;68.00;100890.06;4974775;28;20382;-73
2022/10/22 05:55:18;;;;;;;27.83;26.02;;;;;;;15.46;68.28;100890.88;4974404;28;20061;-76
2022/10/22 05:57:44;;;;;;;26.20;24.27;;;;;;;15.45;68.14;100887.34;4975125;28;20035;-72
2022/10/22 06:00:10;;;;;;;26.02;24.60;;;;;;;15.44;67.83;100899.28;4974732;28;20390;-73
2022/10/22 06:02:35;;;;;;;27.60;25.98;;;;;;;15.45;68.13;100897.41;4974802;28;20034;-73
2022/10/22 06:05:00;;;;;;;27.25;25.33;;;;;;;15.44;68.06;100904.75;4974572;28;20379;-73
2022/10/22 06:07:26;;;;;;;28.35;26.67;;;;;;;15.44;67.83;100898.50;4974649;28;20062;-74
2022/10/22 06:09:52;;;;;;;25.92;24.45;;;;;;;15.43;67.94;100911.28;4978886;28;20375;-73
2022/10/22 06:12:18;;;;;;;26.25;24.75;;;;;;;15.43;68.13;100903.13;4978569;28;20126;-74
2022/10/22 06:14:43;;;;;;;27.10;25.50;;;;;;;15.43;68.18;100910.47;4978497;28;20041;-74
2022/10/22 06:17:11;;;;;;;29.40;26.92;;;;;;;15.41;68.20;100910.72;4978741;28;20191;-74
2022/10/22 06:19:36;;;;;;;27.98;26.38;;;;;;;15.42;67.87;100917.84;4978899;28;20066;-74
2022/10/22 06:22:03;;;;;;;27.15;25.60;;;;;;;15.40;68.00;100917.28;4978327;28;20062;-73
2022/10/22 06:24:28;;;;;;;28.95;26.52;;;;;;;15.41;68.19;100926.25;4978272;28;20046;-73
2022/10/22 06:26:54;;;;;;;28.63;26.45;;;;;;;15.42;67.94;100931.44;4978527;28;20031;-73
2022/10/22 06:29:19;;;;;;;26.77;25.08;;;;;;;15.40;68.09;100928.16;4978547;28;20044;-73
2022/10/22 06:31:45;;;;;;;28.20;26.15;;;;;;;15.40;67.98;100932.81;4977594;28;20035;-74
2022/10/22 06:34:12;;;;;;;27.38;25.33;;;;;;;15.39;68.04;100934.69;4977946;28;20066;-74
2022/10/22 06:36:39;;;;;;;27.50;25.90;;;;;;;15.39;67.96;100936.59;4978065;28;20038;-74
2022/10/22 06:39:05;;;;;;;27.25;25.55;;;;;;;15.38;68.19;100946.66;4978058;28;20038;-75
2022/10/22 06:41:30;;;;;;;28.48;26.60;;;;;;;15.37;68.13;100945.00;4977960;28;20035;-74
2022/10/22 06:43:56;;;;;;;27.20;25.67;;;;;;;15.37;68.12;100953.19;4977795;28;20114;-74
2022/10/22 06:46:23;;;;;;;27.92;26.10;;;;;;;15.38;67.79;100959.47;4977964;28;20117;-75
2022/10/22 06:48:54;;;;;;;28.00;26.30;;;;;;;15.36;68.02;100971.41;4978364;28;20035;-74
2022/10/22 06:51:20;;;;;;;27.05;25.38;;;;;;;15.36;67.87;100968.69;4978427;28;20166;-74
2022/10/22 06:53:46;;;;;;;26.42;24.92;;;;;;;15.36;68.21;100978.78;4977699;28;20113;-74
2022/10/22 06:56:14;;;;;;;27.70;25.85;;;;;;;15.36;68.40;100976.06;4978167;28;20035;-73
2022/10/22 06:58:40;;;;;;;27.90;26.23;;;;;;;15.35;67.79;100986.13;4977681;28;20098;-73
2022/10/22 07:01:11;;;;;;;26.80;25.30;;;;;;;15.34;68.09;100987.19;4978184;28;20122;-74
2022/10/22 07:03:37;;;;;;;28.20;26.20;;;;;;;15.34;68.30;100987.19;4977601;28;20041;-73
2022/10/22 07:06:06;;;;;;;28.05;26.02;;;;;;;15.33;68.17;100985.56;4977537;28;20035;-73
2022/10/22 07:08:32;;;;;;;29.58;26.95;;;;;;;15.33;68.04;100991.03;4977430;28;20027;-73
2022/10/22 07:11:11;;;;;;;27.25;25.38;;;;;;;15.34;68.38;100994.56;4977539;28;20064;-74
2022/10/22 07:13:37;;;;;;;27.98;26.30;;;;;;;15.33;67.97;100992.94;4977878;28;20026;-74
2022/10/22 07:16:04;;;;;;;26.92;25.42;;;;;;;15.32;68.00;100997.56;4977664;28;20050;-74
2022/10/22 07:18:30;;;;;;;30.15;28.00;;;;;;;15.31;68.26;100995.91;4977054;28;20039;-75
2022/10/22 07:20:55;;;;;;;30.63;28.30;;;;;;;15.31;67.98;101001.34;4976145;28;20502;-74
2022/10/22 07:23:20;;;;;;;29.75;27.50;;;;;;;15.32;68.50;101004.88;4976266;28;20102;-73
2022/10/22 07:25:46;;;;;;;27.02;25.50;;;;;;;15.31;68.25;101005.97;4976863;28;20468;-74
2022/10/22 07:28:12;;;;;;;25.63;23.98;;;;;;;15.31;67.88;101008.72;4977739;28;20094;-73
2022/10/22 07:30:38;;;;;;;28.23;26.33;;;;;;;15.30;68.48;101013.34;4977377;28;20379;-74
2022/10/22 07:33:04;;;;;;;28.80;26.35;;;;;;;15.30;68.28;101017.97;4977259;28;20113;-74
2022/10/22 07:35:29;;;;;;;25.65;23.77;;;;;;;15.30;68.34;101017.97;4977026;28;20126;-75
2022/10/22 07:37:55;;;;;;;26.05;24.55;;;;;;;15.30;68.10;101023.41;4977651;28;20023;-75
2022/10/22 07:40:21;;;;;;;25.55;24.05;;;;;;;15.29;68.51;101022.56;4977578;28;20037;-73
2022/10/22 07:42:46;;;;;;;28.92;26.58;;;;;;;15.29;68.22;101019.03;4976074;28;20373;-73
2022/10/22 07:45:11;;;;;;;26.77;24.58;;;;;;;15.29;68.28;101029.91;4977039;28;20083;-74
2022/10/22 07:47:37;;;;;;;28.00;25.83;;;;;;;15.28;68.17;101028.28;4976715;28;20031;-73
2022/10/22 07:50:04;;;;;;;27.70;25.73;;;;;;;15.28;68.22;101031.00;4976793;28;20117;-73
2022/10/22 07:52:29;;;;;;;26.60;24.70;;;;;;;15.28;67.99;101039.19;4977433;28;20046;-73
2022/10/22 07:54:54;;;;;;;27.00;25.25;;;;;;;15.28;68.04;101037.28;4976667;28;20027;-73
2022/10/22 07:57:20;;;;;;;26.45;24.92;;;;;;;15.28;68.36;101039.19;4976701;28;20438;-73
2022/10/22 07:59:45;;;;;;;28.95;26.65;;;;;;;15.28;68.42;101042.72;4976767;28;20038;-73
2022/10/22 08:02:11;;;;;;;27.20;24.88;;;;;;;15.28;68.03;101053.59;4976817;28;20043;-74
2022/10/22 08:04:36;;;;;;;27.13;25.33;;;;;;;15.28;68.29;101053.59;4976654;28;20035;-74
2022/10/22 08:07:02;;;;;;;25.80;23.55;;;;;;;15.29;68.21;101059.84;4976491;28;20113;-73
2022/10/22 08:09:27;;;;;;;26.15;24.60;;;;;;;15.29;68.05;101066.13;4976353;28;20143;-73
2022/10/22 08:11:53;;;;;;;27.48;25.77;;;;;;;15.29;68.36;101070.75;4976532;28;20039;-73
2022/10/22 08:14:19;;;;;;;25.55;24.15;;;;;;;15.29;68.24;101079.72;4975343;28;20126;-73
2022/10/22 08:16:45;;;;;;;25.88;24.08;;;;;;;15.29;68.34;101087.88;4976240;28;20494;-74
2022/10/22 08:19:12;;;;;;;25.40;24.10;;;;;;;15.30;68.20;101075.13;4976166;28;20479;-73
2022/10/22 08:21:38;;;;;;;25.70;24.13;;;;;;;15.30;68.10;101088.72;4976378;28;20030;-73
2022/10/22 08:24:03;;;;;;;27.13;25.00;;;;;;;15.31;68.34;101098.53;4976731;28;20383;-73
2022/10/22 08:26:28;;;;;;;25.95;24.45;;;;;;;15.30;68.09;101097.72;4976476;28;20482;-73
2022/10/22 08:28:54;;;;;;;27.17;25.23;;;;;;;15.31;68.22;101104.78;4976056;28;20435;-74
2022/10/22 08:31:19;;;;;;;25.10;23.40;;;;;;;15.32;68.17;101108.31;4975929;28;20062;-73
2022/10/22 08:33:45;;;;;;;26.40;24.73;;;;;;;15.31;68.33;101106.69;4975887;28;20058;-73
2022/10/22 08:36:10;;;;;;;25.40;23.52;;;;;;;15.32;68.14;101120.03;4976490;28;20459;-74
2022/10/22 08:38:36;;;;;;;26.45;24.45;;;;;;;15.32;68.28;101113.75;4974669;28;20043;-75
2022/10/22 08:41:07;;;;;;;27.60;25.63;;;;;;;15.33;68.39;101116.22;4975859;28;20106;-74
2022/10/22 08:43:57;;;;;;;25.33;23.80;;;;;;;15.33;68.13;101120.84;4975819;28;20027;-74
2022/10/22 08:46:51;;;;;;;25.77;23.60;;;;;;;15.32;68.09;101133.66;4976242;28;20050;-75
2022/10/22 08:49:23;;;;;;;26.80;24.55;;;;;;;15.33;68.10;101135.28;4975724;28;20463;-76
2022/10/22 08:51:49;;;;;;;25.73;23.92;;;;;;;15.33;68.45;101140.72;4973801;28;20038;-75
2022/10/22 08:54:27;;;;;;;25.65;24.05;;;;;;;15.33;67.98;101139.91;4975561;28;20117;-75
2022/10/22 08:57:08;;;;;;;28.70;26.48;;;;;;;15.34;68.24;101144.25;4975894;28;20031;-75
2022/10/22 09:00:11;;;;;;;26.40;24.90;;;;;;;15.36;68.11;101150.25;4975399;28;20447;-75
2022/10/22 09:02:46;;;;;;;26.65;24.95;;;;;;;15.36;68.04;101150.25;4962209;28;20043;-73
2022/10/22 09:05:30;;;;;;;26.48;24.63;;;;;;;15.36;67.90;101142.91;4975449;28;20371;-73
2022/10/22 09:07:56;;;;;;;28.73;26.52;;;;;;;15.38;68.40;101156.25;4975059;28;20045;-74
2022/10/22 09:10:26;;;;;;;28.08;26.00;;;;;;;15.39;68.35;101157.88;4973586;28;20129;-73
2022/10/22 09:12:52;;;;;;;28.98;26.42;;;;;;;15.38;68.43;101161.72;4975318;28;20031;-73
2022/10/22 09:15:18;;;;;;;26.92;25.13;;;;;;;15.41;68.72;101161.16;4975050;28;20054;-73
2022/10/22 09:18:22;;;;;;;28.42;26.05;;;;;;;15.43;68.66;101164.44;4975163;28;20031;-73
2022/10/22 09:20:53;;;;;;;29.83;26.85;;;;;;;15.42;68.44;101162.81;4974731;28;20092;-74
2022/10/22 09:23:46;;;;;;;29.00;26.80;;;;;;;15.44;68.47;101165.25;4974492;28;20027;-73
2022/10/22 09:26:14;;;;;;;28.73;26.55;;;;;;;15.45;68.79;101177.81;4973111;28;20114;-74
2022/10/22 09:28:40;;;;;;;25.13;23.83;;;;;;;15.46;68.77;101188.41;4974638;28;20037;-75
2022/10/22 09:31:13;;;;;;;26.67;24.98;;;;;;;15.47;68.84;101183.78;4974397;28;20034;-74
2022/10/22 09:33:41;;;;;;;28.45;26.25;;;;;;;15.47;68.50;101187.34;4974533;28;20094;-73
2022/10/22 09:36:06;;;;;;;28.65;26.90;;;;;;;15.48;68.68;101199.88;4974192;28;20093;-74
2022/10/22 09:38:40;;;;;;;27.17;25.02;;;;;;;15.49;68.74;101187.88;4974487;28;20407;-73
2022/10/22 09:41:07;;;;;;;27.85;26.20;;;;;;;15.50;68.80;101194.97;4974840;28;20058;-72
2022/10/22 09:43:33;;;;;;;26.30;24.35;;;;;;;15.52;69.28;101198.28;4973703;28;20031;-72
2022/10/22 09:46:02;;;;;;;29.88;27.98;;;;;;;15.52;69.32;101206.44;4974752;28;20047;-73
2022/10/22 09:48:33;;;;;;;26.38;24.85;;;;;;;15.55;68.79;101207.81;4974341;28;20396;-73
2022/10/22 09:51:19;;;;;;;30.20;27.77;;;;;;;15.55;69.08;101208.63;4974170;28;20037;-75
2022/10/22 09:53:53;;;;;;;29.88;27.10;;;;;;;15.55;68.99;101208.63;4974526;28;20027;-76
2022/10/22 09:56:32;;;;;;;27.63;25.88;;;;;;;15.57;69.35;101217.34;4974543;28;20069;-73
2022/10/22 09:58:57;;;;;;;29.23;26.85;;;;;;;15.58;69.34;101218.16;4974463;28;20137;-75
2022/10/22 10:01:34;;;;;;;27.70;26.00;;;;;;;15.59;69.57;101223.31;4974459;28;20408;-74
2022/10/22 10:04:09;;;;;;;31.50;27.35;;;;;;;15.60;69.25;101218.72;4973571;28;20050;-73
2022/10/22 10:06:39;;;;;;;27.67;26.08;;;;;;;15.62;69.16;101226.59;4973795;28;20423;-74
2022/10/22 10:09:22;;;;;;;27.80;25.98;;;;;;;15.64;69.03;101235.34;4974338;28;20102;-73
2022/10/22 10:12:15;;;;;;;28.25;25.92;;;;;;;15.65;69.50;101231.53;4974033;28;20058;-75
2022/10/22 10:14:53;;;;;;;27.42;25.52;;;;;;;15.66;69.04;101233.19;4973949;28;20030;-73
2022/10/22 10:17:27;;;;;;;27.30;25.47;;;;;;;15.68;69.17;101241.91;4974721;28;20110;-74
2022/10/22 10:20:09;;;;;;;30.13;27.98;;;;;;;15.68;69.18;101237.28;4973604;28;20110;-73
2022/10/22 10:22:57;;;;;;;28.25;25.98;;;;;;;15.70;69.54;101243.31;4974246;28;20106;-74
2022/10/22 10:25:38;;;;;;;28.10;26.40;;;;;;;15.71;68.99;101244.94;4973889;28;20035;-74
2022/10/22 10:28:59;;;;;;;29.48;27.30;;;;;;;15.73;69.09;101248.22;4974018;28;20105;-74
2022/10/22 10:31:55;;;;;;;27.55;25.63;;;;;;;15.75;68.88;101250.69;4914351;29;20043;-75
2022/10/22 10:34:28;;;;;;;28.95;26.65;;;;;;;15.75;69.18;101250.69;4974127;28;20046;-74
2022/10/22 10:37:00;;;;;;;28.92;27.02;;;;;;;15.77;69.28;101248.50;4973911;28;20062;-73
2022/10/22 10:39:53;;;;;;;28.92;26.63;;;;;;;15.79;69.53;101254.50;4973944;28;20065;-73
2022/10/22 10:42:35;;;;;;;27.27;25.67;;;;;;;15.81;69.11;101257.78;4973746;28;20375;-75
2022/10/22 10:45:09;;;;;;;29.27;27.02;;;;;;;15.82;69.39;101267.59;4972045;28;20062;-74
2022/10/22 10:48:14;;;;;;;29.20;26.60;;;;;;;15.84;69.84;101268.16;4973465;28;20042;-75
2022/10/22 10:50:51;;;;;;;29.15;26.90;;;;;;;15.85;69.19;101261.63;4974094;28;20114;-74
2022/10/22 10:53:38;;;;;;;28.85;26.83;;;;;;;15.88;69.30;101265.75;4972690;28;20047;-75
2022/10/22 10:56:30;;;;;;;32.55;29.98;;;;;;;15.89;69.74;101259.19;4977274;28;20039;-75
2022/10/22 10:59:19;;;;;;;29.60;27.50;;;;;;;15.91;69.41;101259.75;4977325;28;20427;-75
2022/10/22 11:02:11;;;;;;;29.27;27.20;;;;;;;15.92;69.72;101259.47;4966204;28;20088;-79
2022/10/22 11:05:08;;;;;;;30.17;27.63;;;;;;;15.95;69.30;101264.41;4977430;28;20091;-74
2022/10/22 11:07:45;;;;;;;28.58;26.35;;;;;;;15.96;69.31;101260.59;4976370;28;20066;-75
2022/10/22 11:10:32;;;;;;;28.42;26.50;;;;;;;15.99;69.02;101261.97;4977115;28;20045;-76
2022/10/22 11:13:06;;;;;;;30.38;28.38;;;;;;;16.00;69.47;101261.72;4976932;28;20031;-74
2022/10/22 11:15:33;;;;;;;29.02;27.15;;;;;;;16.03;69.37;101260.34;4976260;28;20403;-76
2022/10/22 11:18:31;;;;;;;32.25;29.77;;;;;;;16.06;69.01;101256.28;4976662;28;20078;-77
2022/10/22 11:21:16;;;;;;;31.52;28.90;;;;;;;16.07;69.01;101264.16;4977038;28;20031;-75
2022/10/22 11:23:44;;;;;;;30.00;28.40;;;;;;;16.09;68.93;101258.47;4976849;28;20475;-76
2022/10/22 11:26:18;;;;;;;27.85;26.27;;;;;;;16.11;68.82;101262.56;4976472;28;20459;-75